Time;durP1;ratioP1;P1;durP2;ratioP2;P2;SDS_P1;SDS_P2;PMS_P1;PMS_P2;Temp;Humidity;BMP_temperature;BMP_pressure;BME280_temperature;BME280_humidity;BME280_pressure;Samples;Min_cycle;Max_cycle;Signal;HPM_P1;HPM_P2
2023/05/04 00:03:39;;;;;;;1.02;0.32;;;7.10;99.90;;;;;;25967537;22;20018;-51
2023/05/04 00:13:40;;;;;;;0.68;0.45;;;7.10;99.90;;;;;;25970407;22;20007;-51
2023/05/04 00:23:42;;;;;;;0.80;0.40;;;6.90;99.90;;;;;;25969880;22;20031;-52
2023/05/04 00:33:44;;;;;;;0.93;0.50;;;6.50;99.90;;;;;;25969565;22;20010;-53
2023/05/04 00:43:46;;;;;;;2.08;0.45;;;6.50;99.90;;;;;;25969154;22;20020;-60
2023/05/04 00:53:49;;;;;;;0.70;0.47;;;6.90;99.90;;;;;;25968879;22;20081;-50
2023/05/04 01:03:53;;;;;;;0.75;0.40;;;7.30;99.90;;;;;;25968479;22;20014;-52
2023/05/04 01:13:55;;;;;;;0.73;0.60;;;7.60;99.90;;;;;;25967509;22;20004;-49
2023/05/04 01:23:58;;;;;;;0.50;0.40;;;7.70;99.90;;;;;;25967681;22;20343;-49
2023/05/04 01:34:00;;;;;;;1.35;0.80;;;7.70;99.90;;;;;;25967320;22;20004;-48
2023/05/04 01:44:03;;;;;;;1.02;0.90;;;7.60;99.90;;;;;;25966932;22;20373;-51
2023/05/04 01:54:05;;;;;;;0.80;0.40;;;7.40;99.90;;;;;;25966087;22;20007;-49
2023/05/04 02:04:07;;;;;;;1.63;0.65;;;7.20;99.90;;;;;;25965718;22;20466;-51
2023/05/04 02:14:09;;;;;;;0.90;0.73;;;7.10;99.90;;;;;;25966780;22;19999;-51
2023/05/04 02:24:10;;;;;;;1.25;0.77;;;6.90;99.90;;;;;;25965120;22;20011;-53
2023/05/04 02:34:12;;;;;;;1.42;0.90;;;6.90;99.90;;;;;;25937782;22;20004;-54
2023/05/04 02:44:21;;;;;;;2.13;0.70;;;6.80;99.90;;;;;;25936435;22;20011;-53
2023/05/04 02:54:23;;;;;;;1.67;1.15;;;6.60;99.90;;;;;;25937200;22;20012;-53
2023/05/04 03:04:24;;;;;;;1.30;0.90;;;6.20;99.90;;;;;;25936889;22;20367;-51
2023/05/04 03:14:26;;;;;;;2.38;0.98;;;5.80;99.90;;;;;;25965338;22;20007;-53
2023/05/04 03:24:28;;;;;;;1.23;1.00;;;5.70;99.90;;;;;;25912615;22;20385;-59
2023/05/04 03:34:30;;;;;;;1.60;1.00;;;5.80;99.90;;;;;;25964753;22;19999;-54
2023/05/04 03:44:36;;;;;;;1.35;0.93;;;6.00;99.90;;;;;;25917834;22;20073;-51
2023/05/04 03:54:38;;;;;;;1.10;0.82;;;6.20;99.90;;;;;;25971353;22;20081;-51
2023/05/04 04:04:39;;;;;;;1.05;0.93;;;6.30;99.90;;;;;;25971063;22;20026;-51
2023/05/04 04:14:41;;;;;;;1.35;1.10;;;6.40;99.90;;;;;;25970078;22;19999;-52
2023/05/04 04:24:43;;;;;;;1.98;1.17;;;6.50;99.90;;;;;;25970308;22;20012;-53
2023/05/04 04:34:45;;;;;;;1.50;1.20;;;6.70;99.90;;;;;;25969855;22;20003;-50
2023/05/04 04:44:48;;;;;;;1.75;0.90;;;6.80;99.90;;;;;;25971757;22;20003;-52
2023/05/04 04:54:50;;;;;;;1.02;0.93;;;7.00;99.90;;;;;;25968857;22;20012;-50
2023/05/04 05:04:52;;;;;;;1.00;0.85;;;7.30;99.90;;;;;;25969759;22;20008;-49
2023/05/04 05:14:54;;;;;;;0.73;0.65;;;7.60;99.90;;;;;;25968271;22;20350;-50
2023/05/04 05:24:56;;;;;;;1.48;0.70;;;8.00;99.90;;;;;;25967935;22;20030;-51
2023/05/04 05:34:57;;;;;;;0.85;0.68;;;8.20;99.90;;;;;;25967248;22;20073;-47
2023/05/04 05:45:00;;;;;;;0.95;0.60;;;8.30;99.90;;;;;;25940200;22;20011;-47
2023/05/04 05:55:02;;;;;;;0.55;0.50;;;8.70;99.90;;;;;;25966661;22;20355;-50
2023/05/04 06:05:04;;;;;;;1.08;0.63;;;9.10;99.90;;;;;;25965895;22;20512;-51
2023/05/04 06:15:07;;;;;;;1.00;0.65;;;9.50;99.90;;;;;;25964753;22;20008;-50
2023/05/04 06:25:08;;;;;;;3.15;1.40;;;10.20;99.90;;;;;;25938497;22;20000;-49
2023/05/04 06:35:10;;;;;;;2.78;2.00;;;11.10;99.90;;;;;;25964593;22;20307;-61
2023/05/04 06:45:12;;;;;;;2.75;2.08;;;13.40;99.90;;;;;;25965670;22;20516;-53
2023/05/04 06:55:14;;;;;;;1.92;1.50;;;16.20;99.90;;;;;;25965215;22;20008;-61
2023/05/04 07:05:16;;;;;;;1.80;1.50;;;17.80;99.90;;;;;;25964539;22;20105;-63
2023/05/04 07:15:18;;;;;;;4.05;2.50;;;18.60;99.90;;;;;;25970336;22;20058;-52
2023/05/04 07:25:19;;;;;;;3.92;1.60;;;18.90;99.90;;;;;;25974021;22;19999;-50
2023/05/04 07:35:21;;;;;;;1.83;1.73;;;19.60;99.90;;;;;;25971218;22;20271;-51
2023/05/04 07:45:23;;;;;;;2.83;2.42;;;20.30;99.20;;;;;;25971604;22;20012;-51
2023/05/04 07:55:25;;;;;;;3.00;2.72;;;20.70;99.90;;;;;;25971663;22;20508;-48
2023/05/04 08:05:27;;;;;;;3.83;3.42;;;20.90;99.80;;;;;;25972188;22;20011;-61
2023/05/04 08:15:29;;;;;;;3.90;3.35;;;19.20;98.90;;;;;;25970521;22;20000;-60
2023/05/04 08:25:30;;;;;;;4.22;3.83;;;17.10;99.90;;;;;;25971123;22;19999;-61
2023/05/04 08:35:32;;;;;;;5.25;4.47;;;16.20;99.90;;;;;;25969594;22;20308;-61
2023/05/04 08:45:38;;;;;;;5.95;4.60;;;15.50;99.90;;;;;;25995796;22;20020;-61
2023/05/04 08:55:42;;;;;;;6.05;4.72;;;14.80;99.90;;;;;;26011396;22;20012;-61
2023/05/04 09:05:45;;;;;;;5.35;4.85;;;14.30;99.90;;;;;;25967436;22;19995;-50
2023/05/04 09:15:57;;;;;;;5.80;4.72;;;13.80;99.90;;;;;;25968198;22;20050;-52
2023/05/04 09:25:58;;;;;;;7.85;5.30;;;13.20;99.90;;;;;;26010093;22;20004;-61
2023/05/04 09:36:15;;;;;;;8.32;6.13;;;13.60;99.90;;;;;;25966510;22;20000;-61
2023/05/04 09:46:18;;;;;;;6.90;5.72;;;14.10;99.90;;;;;;25988998;22;20377;-61
2023/05/04 09:56:31;;;;;;;5.72;5.03;;;14.10;99.90;;;;;;25966303;22;20000;-61
2023/05/04 10:06:33;;;;;;;7.57;5.38;;;14.60;99.90;;;;;;26006967;22;20484;-64
2023/05/04 10:17:03;;;;;;;5.47;4.90;;;15.60;99.90;;;;;;25965313;22;20377;-50
2023/05/04 10:27:16;;;;;;;;;;;15.70;99.90;;;;;;26008346;22;20008;-61
2023/05/04 10:37:20;;;;;;;4.07;3.60;;;15.60;99.90;;;;;;25964680;22;19911;-61
2023/05/04 10:47:31;;;;;;;4.30;3.90;;;16.50;99.90;;;;;;25961633;22;20023;-61
2023/05/04 10:57:33;;;;;;;3.40;3.08;;;16.50;99.90;;;;;;25959309;22;20430;-62
2023/05/04 11:07:38;;;;;;;5.88;3.92;;;16.20;99.90;;;;;;25932135;22;20008;-61
2023/05/04 11:17:51;;;;;;;4.03;3.35;;;16.50;99.90;;;;;;25958703;22;20007;-60
2023/05/04 11:27:53;;;;;;;7.47;3.92;;;18.00;99.90;;;;;;26000724;22;20015;-62
2023/05/04 11:37:56;;;;;;;5.20;4.15;;;18.10;99.90;;;;;;25957848;22;20008;-60
2023/05/04 11:47:59;;;;;;;5.68;4.13;;;18.30;99.90;;;;;;25902811;22;1346667;-61
2023/05/04 11:58:06;;;;;;;4.38;3.97;;;18.40;99.90;;;;;;25966367;22;20026;-49
2023/05/04 12:08:11;;;;;;;5.30;3.83;;;18.30;99.90;;;;;;26012322;22;20311;-50
2023/05/04 12:18:28;;;;;;;4.47;3.88;;;18.80;97.90;;;;;;25970349;22;20255;-62
2023/05/04 12:28:30;;;;;;;4.20;3.80;;;19.60;99.90;;;;;;26013731;22;20007;-48
2023/05/04 12:38:31;;;;;;;4.63;4.22;;;20.90;99.00;;;;;;25971468;22;20030;-49
2023/05/04 12:48:33;;;;;;;5.03;4.55;;;20.90;97.40;;;;;;25969083;22;20015;-62
2023/05/04 12:58:35;;;;;;;6.13;5.45;;;20.80;99.90;;;;;;25968807;22;20019;-62
2023/05/04 13:08:36;;;;;;;11.35;7.18;;;21.00;98.70;;;;;;25967236;22;20389;-63
2023/05/04 13:18:38;;;;;;;8.80;7.13;;;20.20;99.20;;;;;;25968128;22;20008;-62
2023/05/04 13:28:40;;;;;;;9.30;8.40;;;19.40;99.90;;;;;;25968057;22;20461;-50
2023/05/04 13:38:42;;;;;;;11.20;9.05;;;19.00;99.90;;;;;;25966784;22;20007;-63
2023/05/04 13:48:44;;;;;;;11.65;8.68;;;18.40;99.90;;;;;;25966732;22;20015;-61
2023/05/04 13:58:45;;;;;;;13.38;9.55;;;17.60;99.90;;;;;;25967629;22;20381;-61
2023/05/04 14:08:47;;;;;;;10.75;8.98;;;17.70;99.90;;;;;;25966534;22;20008;-50
2023/05/04 14:18:49;;;;;;;13.82;8.85;;;17.80;99.90;;;;;;25967241;22;20007;-62
2023/05/04 14:28:50;;;;;;;9.85;8.85;;;17.60;99.90;;;;;;25965399;22;20003;-48
2023/05/04 14:38:52;;;;;;;9.43;7.85;;;17.70;99.90;;;;;;25965385;22;20333;-64
2023/05/04 14:48:54;;;;;;;10.30;7.80;;;18.10;99.90;;;;;;25964901;22;20389;-63
2023/05/04 14:58:56;;;;;;;10.32;8.30;;;17.70;99.90;;;;;;25965395;22;20062;-50
2023/05/04 15:08:58;;;;;;;7.88;6.75;;;17.90;99.90;;;;;;25964385;22;20007;-63
2023/05/04 15:18:59;;;;;;;7.15;6.45;;;17.70;99.90;;;;;;25965443;22;20004;-61
2023/05/04 15:29:01;;;;;;;8.13;7.32;;;17.50;99.90;;;;;;25964088;22;20042;-63
2023/05/04 15:39:04;;;;;;;6.90;6.30;;;17.70;99.90;;;;;;25972240;22;20004;-49
2023/05/04 15:49:05;;;;;;;7.82;7.07;;;18.50;99.90;;;;;;25971813;22;20434;-66
2023/05/04 15:59:07;;;;;;;9.93;7.20;;;19.30;99.10;;;;;;25971326;22;20004;-52
2023/05/04 16:09:09;;;;;;;9.38;6.97;;;17.90;99.00;;;;;;25969848;22;20007;-64
2023/05/04 16:19:10;;;;;;;9.10;7.50;;;16.00;99.90;;;;;;25970691;22;20008;-61
2023/05/04 16:29:12;;;;;;;8.75;7.85;;;15.40;99.90;;;;;;25970320;22;20050;-61
2023/05/04 16:39:15;;;;;;;8.57;7.68;;;14.30;99.90;;;;;;25970082;22;20007;-60
2023/05/04 16:49:17;;;;;;;9.70;8.35;;;13.60;99.90;;;;;;25969371;22;20377;-60
2023/05/04 16:59:19;;;;;;;10.07;8.40;;;12.90;99.90;;;;;;25970088;22;20006;-60
2023/05/04 17:09:21;;;;;;;9.52;8.52;;;12.40;99.90;;;;;;25968552;22;20446;-52
2023/05/04 17:19:22;;;;;;;14.27;10.55;;;12.10;99.90;;;;;;25967524;22;20038;-59
2023/05/04 17:29:24;;;;;;;11.98;10.52;;;11.80;99.90;;;;;;25967468;22;20019;-59
2023/05/04 17:39:26;;;;;;;13.20;10.32;;;11.50;99.90;;;;;;25966496;22;20000;-60
2023/05/04 17:49:28;;;;;;;14.00;11.65;;;11.10;99.90;;;;;;25967902;22;20462;-52
2023/05/04 17:59:30;;;;;;;15.32;12.32;;;10.50;99.90;;;;;;25968963;22;20296;-59
2023/05/04 18:09:31;;;;;;;16.58;12.50;;;9.90;99.90;;;;;;25966339;22;20004;-59
2023/05/04 18:19:35;;;;;;;18.38;13.20;;;9.40;99.90;;;;;;25966202;22;20030;-58
2023/05/04 18:29:37;;;;;;;18.10;14.00;;;8.80;99.90;;;;;;25965463;22;20061;-52
2023/05/04 18:39:39;;;;;;;21.67;16.67;;;8.50;99.90;;;;;;25964239;22;20469;-51
2023/05/04 18:49:42;;;;;;;22.50;16.55;;;8.30;99.90;;;;;;25938478;22;20011;-52
2023/05/04 18:59:44;;;;;;;23.90;17.42;;;8.10;99.90;;;;;;25964972;22;20022;-51
2023/05/04 19:09:46;;;;;;;29.30;20.02;;;7.90;99.90;;;;;;25935318;22;20030;-51
2023/05/04 19:19:48;;;;;;;30.42;21.60;;;7.70;99.90;;;;;;25964762;22;20073;-51
2023/05/04 19:29:49;;;;;;;30.90;21.33;;;7.60;99.90;;;;;;25963795;22;20011;-51
2023/05/04 19:39:51;;;;;;;34.20;22.23;;;7.50;99.90;;;;;;25934390;22;20019;-51
2023/05/04 19:49:53;;;;;;;38.67;24.42;;;7.40;99.90;;;;;;25964522;22;20011;-57
2023/05/04 19:59:56;;;;;;;37.70;23.40;;;7.30;99.90;;;;;;25963236;22;20008;-57
2023/05/04 20:09:58;;;;;;;35.78;23.33;;;7.40;99.90;;;;;;25963089;22;20008;-49
2023/05/04 20:20:02;;;;;;;42.25;26.92;;;7.40;99.90;;;;;;25966907;22;20003;-50
2023/05/04 20:30:05;;;;;;;41.70;26.23;;;7.40;99.90;;;;;;25970747;22;20012;-49
2023/05/04 20:40:07;;;;;;;44.33;27.80;;;7.20;99.90;;;;;;25944554;22;20427;-58
2023/05/04 20:50:10;;;;;;;52.42;29.85;;;7.10;99.90;;;;;;25969015;22;20012;-58
2023/05/04 21:00:13;;;;;;;48.08;29.77;;;7.00;99.90;;;;;;25968825;22;20004;-50
2023/05/04 21:10:15;;;;;;;47.38;28.45;;;6.90;99.90;;;;;;25968510;22;20008;-50
2023/05/04 21:20:17;;;;;;;49.20;30.45;;;6.80;99.90;;;;;;25968270;22;20000;-50
2023/05/04 21:30:18;;;;;;;57.17;33.17;;;6.70;99.90;;;;;;25967434;22;20010;-51
2023/05/04 21:40:20;;;;;;;53.78;31.83;;;6.60;99.90;;;;;;25967603;22;20377;-49
2023/05/04 21:50:22;;;;;;;54.35;33.00;;;6.50;99.90;;;;;;25966607;22;20381;-58
2023/05/04 22:00:24;;;;;;;60.40;35.35;;;6.50;99.90;;;;;;25966692;22;20280;-52
2023/05/04 22:10:26;;;;;;;63.40;35.15;;;6.50;99.90;;;;;;25967948;22;20000;-51
2023/05/04 22:20:28;;;;;;;55.97;32.38;;;6.50;99.90;;;;;;25966049;22;20012;-50
2023/05/04 22:30:29;;;;;;;64.60;36.90;;;6.50;99.90;;;;;;25965621;22;20011;-51
2023/05/04 22:40:31;;;;;;;63.53;34.65;;;6.50;99.90;;;;;;25965228;22;20004;-50
2023/05/04 22:50:33;;;;;;;62.35;35.72;;;6.40;99.90;;;;;;25964647;22;20046;-50
2023/05/04 23:00:34;;;;;;;70.25;39.25;;;6.30;99.90;;;;;;25964684;22;20007;-57
2023/05/04 23:10:36;;;;;;;64.22;37.75;;;6.40;99.90;;;;;;25964261;22;20371;-58
2023/05/04 23:20:38;;;;;;;70.13;39.25;;;6.40;99.90;;;;;;25964625;22;20504;-49
2023/05/04 23:30:40;;;;;;;61.00;36.83;;;6.40;99.90;;;;;;25964277;22;20012;-58
2023/05/04 23:40:41;;;;;;;62.78;37.97;;;6.50;99.90;;;;;;25964390;22;20499;-58
2023/05/04 23:50:53;;;;;;;58.90;35.25;;;6.60;99.90;;;;;;25964262;22;20012;-48
